Time;durP1;ratioP1;P1;durP2;ratioP2;P2;SDS_P1;SDS_P2;PMS_P1;PMS_P2;Temp;Humidity;BMP_temperature;BMP_pressure;BME280_temperature;BME280_humidity;BME280_pressure;Samples;Min_cycle;Max_cycle;Signal;HPM_P1;HPM_P2
2021/04/01 00:00:47;;;;;;;20.17;8.80;;;11.70;91.50;;;;;;5110344;28;20452;-68
2021/04/01 00:03:14;;;;;;;20.60;10.47;;;11.60;91.90;;;;;;5113329;28;20444;-68
2021/04/01 00:05:40;;;;;;;20.17;10.50;;;11.60;92.10;;;;;;5114539;28;20926;-67
2021/04/01 00:08:07;;;;;;;20.70;9.30;;;11.60;92.50;;;;;;5114300;28;20433;-68
2021/04/01 00:10:37;;;;;;;24.90;10.37;;;11.60;92.70;;;;;;5113906;28;20448;-68
2021/04/01 00:13:04;;;;;;;19.67;9.10;;;11.60;93.00;;;;;;5114137;28;20427;-67
2021/04/01 00:15:31;;;;;;;25.43;9.80;;;11.50;93.80;;;;;;5114201;28;20434;-67
2021/04/01 00:17:58;;;;;;;14.97;9.03;;;11.50;94.00;;;;;;5113997;28;21002;-68
2021/04/01 00:20:25;;;;;;;20.67;9.87;;;11.50;94.60;;;;;;5113939;28;20432;-68
2021/04/01 00:22:52;;;;;;;17.27;9.10;;;11.40;94.70;;;;;;5114217;28;20475;-68
2021/04/01 00:25:19;;;;;;;16.60;8.67;;;11.40;95.00;;;;;;5113851;28;20455;-68
2021/04/01 00:27:46;;;;;;;19.63;10.00;;;11.30;95.30;;;;;;5114258;28;20495;-68
2021/04/01 00:30:14;;;;;;;16.33;9.40;;;11.30;95.80;;;;;;5113828;28;20796;-68
2021/04/01 00:32:41;;;;;;;26.33;10.00;;;11.30;97.20;;;;;;5113927;28;20450;-68
2021/04/01 00:35:09;;;;;;;21.40;9.40;;;11.30;97.10;;;;;;5113687;28;20425;-69
2021/04/01 00:37:37;;;;;;;23.50;10.00;;;11.30;97.30;;;;;;5113803;28;20867;-68
2021/04/01 00:40:05;;;;;;;23.00;10.73;;;11.30;97.20;;;;;;5113062;28;20426;-68
2021/04/01 00:42:33;;;;;;;15.33;8.93;;;11.40;97.40;;;;;;5113745;28;20450;-68
2021/04/01 00:45:00;;;;;;;16.10;8.23;;;11.30;98.10;;;;;;5113572;28;20432;-68
2021/04/01 00:47:36;;;;;;;26.53;12.20;;;11.30;98.50;;;;;;5113685;28;20934;-68
2021/04/01 00:50:11;;;;;;;18.67;9.93;;;11.20;99.00;;;;;;5112307;28;20916;-68
2021/04/01 00:52:41;;;;;;;19.00;10.03;;;11.10;99.30;;;;;;5113416;28;20853;-68
2021/04/01 00:55:16;;;;;;;22.97;9.63;;;11.00;99.00;;;;;;5113428;28;20428;-68
2021/04/01 00:57:46;;;;;;;25.83;9.53;;;11.00;98.90;;;;;;5113232;28;20461;-68
2021/04/01 01:00:22;;;;;;;25.70;10.30;;;10.90;99.90;;;;;;5112111;28;20434;-68
2021/04/01 01:02:51;;;;;;;23.10;9.60;;;10.80;99.90;;;;;;5113178;28;20445;-68
2021/04/01 01:05:19;;;;;;;19.23;11.53;;;10.70;99.90;;;;;;5112829;28;20430;-68
2021/04/01 01:07:47;;;;;;;22.10;11.07;;;10.70;99.90;;;;;;5113150;28;20433;-68
2021/04/01 01:10:20;;;;;;;19.60;9.00;;;10.70;99.90;;;;;;5112701;28;20438;-67
2021/04/01 01:12:50;;;;;;;15.93;8.73;;;10.70;99.90;;;;;;5112879;28;20439;-67
2021/04/01 01:15:47;;;;;;;18.47;9.13;;;10.60;99.90;;;;;;5112641;28;20442;-68
2021/04/01 01:18:15;;;;;;;24.17;11.57;;;10.60;99.90;;;;;;5079612;28;20465;-67
2021/04/01 01:20:43;;;;;;;22.70;11.17;;;10.70;99.90;;;;;;5112717;28;20867;-67
2021/04/01 01:23:19;;;;;;;20.00;10.27;;;10.70;99.90;;;;;;5113060;28;20441;-67
2021/04/01 01:25:49;;;;;;;22.50;9.00;;;10.80;99.90;;;;;;5112802;28;20425;-67
2021/04/01 01:28:37;;;;;;;17.33;9.37;;;10.70;99.90;;;;;;5112773;28;20471;-67
2021/04/01 01:31:04;;;;;;;18.63;9.40;;;10.70;99.90;;;;;;5112294;28;20456;-67
2021/04/01 01:33:40;;;;;;;16.07;9.47;;;10.60;99.90;;;;;;5112525;28;20443;-67
2021/04/01 01:36:13;;;;;;;21.77;10.20;;;10.50;99.90;;;;;;5112235;28;20424;-67
2021/04/01 01:38:51;;;;;;;15.57;8.07;;;10.40;99.90;;;;;;5112477;28;20476;-67
2021/04/01 01:41:24;;;;;;;20.70;10.70;;;10.30;99.90;;;;;;5112479;28;20805;-67
2021/04/01 01:43:53;;;;;;;21.23;10.83;;;10.20;99.90;;;;;;5112590;28;21120;-67
2021/04/01 01:46:22;;;;;;;22.43;11.27;;;10.20;99.90;;;;;;5112163;28;20440;-67
2021/04/01 01:48:53;;;;;;;20.93;9.33;;;10.20;99.90;;;;;;5111950;28;21062;-67
2021/04/01 01:51:25;;;;;;;23.33;10.60;;;10.30;99.90;;;;;;5111808;28;20450;-67
2021/04/01 01:53:57;;;;;;;16.00;11.00;;;10.20;99.90;;;;;;5112203;28;20839;-67
2021/04/01 01:56:32;;;;;;;23.03;11.37;;;10.20;99.90;;;;;;5112071;28;20432;-67
2021/04/01 01:59:03;;;;;;;19.27;11.47;;;10.10;99.90;;;;;;5111794;28;20517;-67
2021/04/01 02:01:34;;;;;;;24.73;10.90;;;10.10;99.90;;;;;;5111879;28;20829;-67
2021/04/01 02:04:03;;;;;;;20.70;9.83;;;10.10;99.90;;;;;;5112397;28;20428;-67
2021/04/01 02:06:31;;;;;;;16.27;10.07;;;10.00;99.90;;;;;;5111850;28;20448;-67
2021/04/01 02:08:59;;;;;;;24.57;9.93;;;10.00;99.90;;;;;;5111599;28;20439;-67
2021/04/01 02:11:44;;;;;;;16.83;9.63;;;10.00;99.90;;;;;;5111847;28;20562;-67
2021/04/01 02:14:19;;;;;;;20.40;9.63;;;10.00;99.90;;;;;;5111624;28;20560;-67
2021/04/01 02:16:49;;;;;;;21.63;10.30;;;10.00;99.90;;;;;;5107601;28;20455;-67
2021/04/01 02:19:18;;;;;;;22.17;9.83;;;9.90;99.90;;;;;;5111079;28;20562;-67
2021/04/01 02:21:54;;;;;;;22.90;10.80;;;9.90;99.90;;;;;;5111298;28;20455;-67
2021/04/01 02:24:21;;;;;;;18.47;8.37;;;9.80;99.90;;;;;;5111407;28;20465;-67
2021/04/01 02:26:49;;;;;;;15.87;9.33;;;9.90;99.90;;;;;;5110797;28;20452;-67
2021/04/01 02:29:30;;;;;;;20.10;9.10;;;10.00;99.90;;;;;;5111370;28;20420;-67
2021/04/01 02:32:01;;;;;;;19.90;9.17;;;9.90;99.90;;;;;;5111350;28;20551;-67
2021/04/01 02:34:30;;;;;;;21.30;9.30;;;9.90;99.90;;;;;;5111315;28;20496;-67
2021/04/01 02:36:57;;;;;;;23.73;8.83;;;9.90;99.90;;;;;;5111067;28;20517;-68
2021/04/01 02:39:27;;;;;;;16.27;9.53;;;9.80;99.90;;;;;;5111277;28;20465;-67
2021/04/01 02:41:55;;;;;;;23.33;10.17;;;9.90;99.90;;;;;;5111341;28;20448;-67
2021/04/01 02:44:24;;;;;;;21.13;10.60;;;10.00;99.90;;;;;;5111287;28;20432;-67
2021/04/01 02:47:01;;;;;;;18.53;9.93;;;10.00;99.90;;;;;;5111133;28;20441;-67
2021/04/01 02:49:28;;;;;;;20.23;9.70;;;10.00;99.90;;;;;;5111043;28;20928;-66
2021/04/01 02:51:56;;;;;;;20.67;9.93;;;9.90;99.90;;;;;;5090602;28;20502;-67
2021/04/01 02:54:25;;;;;;;22.20;10.93;;;9.90;99.90;;;;;;5090913;28;20436;-67
2021/04/01 02:56:55;;;;;;;16.43;7.90;;;9.80;99.90;;;;;;5090951;28;20429;-67
2021/04/01 02:59:26;;;;;;;19.83;10.10;;;9.70;99.90;;;;;;5090680;28;20476;-67
2021/04/01 03:01:56;;;;;;;20.50;9.23;;;9.70;99.90;;;;;;5090716;28;20444;-66
2021/04/01 03:04:33;;;;;;;17.20;11.20;;;9.80;99.90;;;;;;5090691;28;20429;-68
2021/04/01 03:07:04;;;;;;;14.33;7.93;;;9.70;99.90;;;;;;5090727;28;20906;-68
2021/04/01 03:09:32;;;;;;;23.37;9.40;;;9.70;99.90;;;;;;5090443;28;20429;-67
2021/04/01 03:12:01;;;;;;;19.63;9.33;;;9.60;99.90;;;;;;5090816;28;20495;-68
2021/04/01 03:14:29;;;;;;;13.10;8.30;;;9.60;99.90;;;;;;5090540;28;20437;-69
2021/04/01 03:16:59;;;;;;;18.93;9.87;;;9.70;99.90;;;;;;5090778;28;20846;-68
2021/04/01 03:19:29;;;;;;;15.70;9.47;;;9.70;99.90;;;;;;5090531;28;21040;-68
2021/04/01 03:22:07;;;;;;;19.53;8.70;;;9.60;99.90;;;;;;5090439;28;20451;-68
2021/04/01 03:24:34;;;;;;;26.20;9.57;;;9.70;99.90;;;;;;5090538;28;20552;-68
2021/04/01 03:27:08;;;;;;;21.80;10.07;;;9.90;99.90;;;;;;5096672;28;20501;-67
2021/04/01 03:29:36;;;;;;;19.20;8.77;;;9.90;99.90;;;;;;5110717;28;20465;-68
2021/04/01 03:32:04;;;;;;;17.83;8.30;;;9.80;99.90;;;;;;5110831;28;20465;-68
2021/04/01 03:34:31;;;;;;;13.80;8.00;;;9.90;99.90;;;;;;5110917;28;20538;-68
2021/04/01 03:37:03;;;;;;;19.10;7.57;;;10.00;99.90;;;;;;5111286;28;20436;-68
2021/04/01 03:39:32;;;;;;;21.10;8.40;;;10.10;99.90;;;;;;5114453;28;21319;-68
2021/04/01 03:42:02;;;;;;;14.73;8.10;;;10.10;99.90;;;;;;5114653;28;20460;-68
2021/04/01 03:44:35;;;;;;;14.07;7.30;;;10.00;99.90;;;;;;5114660;28;20424;-68
2021/04/01 03:47:05;;;;;;;15.70;7.57;;;10.10;99.90;;;;;;5114736;28;20439;-68
2021/04/01 03:49:32;;;;;;;19.60;7.30;;;10.00;99.90;;;;;;5114476;28;20442;-68
2021/04/01 03:54:52;;;;;;;16.53;7.30;;;10.00;99.90;;;;;;5111755;28;20431;-68
2021/04/01 03:57:22;;;;;;;25.40;9.50;;;10.00;99.90;;;;;;5114737;28;20435;-68
2021/04/01 03:59:59;;;;;;;18.57;9.10;;;10.00;99.90;;;;;;5114376;28;20573;-68
2021/04/01 04:02:35;;;;;;;14.97;8.10;;;10.20;99.90;;;;;;5114337;28;20786;-68
2021/04/01 04:05:13;;;;;;;13.00;7.67;;;10.20;99.90;;;;;;5113872;28;20526;-68
2021/04/01 04:08:01;;;;;;;12.70;7.60;;;10.20;99.90;;;;;;5114245;28;20514;-68
2021/04/01 04:10:37;;;;;;;15.00;7.47;;;10.20;99.90;;;;;;5114232;28;20459;-68
2021/04/01 04:13:13;;;;;;;13.10;7.97;;;10.10;99.90;;;;;;5114070;28;20940;-68
2021/04/01 04:15:41;;;;;;;17.23;7.73;;;10.30;99.90;;;;;;5114225;28;20516;-68
2021/04/01 04:18:12;;;;;;;23.13;7.63;;;10.20;99.90;;;;;;5114151;28;20570;-68
2021/04/01 04:20:54;;;;;;;17.50;7.83;;;10.20;99.90;;;;;;5113445;28;20474;-68
2021/04/01 04:23:22;;;;;;;19.73;8.50;;;10.20;99.90;;;;;;5113715;28;20440;-69
2021/04/01 04:25:56;;;;;;;14.53;7.77;;;10.20;99.90;;;;;;5114014;28;20432;-68
2021/04/01 04:28:31;;;;;;;16.17;7.80;;;10.20;99.90;;;;;;5113215;28;20943;-68
2021/04/01 04:31:00;;;;;;;17.03;7.60;;;10.20;99.90;;;;;;5113629;28;20451;-69
2021/04/01 04:33:27;;;;;;;17.67;9.03;;;10.10;99.90;;;;;;5113938;28;20464;-68
2021/04/01 04:35:55;;;;;;;11.50;7.27;;;10.20;99.90;;;;;;5113089;28;20459;-68
2021/04/01 04:38:27;;;;;;;18.30;7.73;;;10.20;99.90;;;;;;5113657;28;20508;-68
2021/04/01 04:41:01;;;;;;;17.90;6.63;;;10.20;99.90;;;;;;5113473;28;20878;-68
2021/04/01 04:43:31;;;;;;;13.87;6.53;;;10.30;99.90;;;;;;5113466;28;20427;-68
2021/04/01 04:46:02;;;;;;;15.77;7.20;;;10.40;99.90;;;;;;5113692;28;20459;-68
2021/04/01 04:48:36;;;;;;;14.77;6.73;;;10.50;99.90;;;;;;5112914;28;20945;-67
2021/04/01 04:51:03;;;;;;;12.20;6.40;;;10.50;99.90;;;;;;5113429;28;20472;-68
2021/04/01 04:53:30;;;;;;;12.73;7.30;;;10.50;99.90;;;;;;5113894;28;20473;-67
2021/04/01 04:56:04;;;;;;;18.53;8.40;;;10.50;99.90;;;;;;5113607;28;20429;-68
2021/04/01 04:58:37;;;;;;;13.83;7.60;;;10.40;99.90;;;;;;5113367;28;21104;-68
2021/04/01 05:01:11;;;;;;;15.63;7.43;;;10.40;99.90;;;;;;5113507;28;21043;-68
2021/04/01 05:06:53;;;;;;;13.13;7.27;;;10.50;99.90;;;;;;5112987;28;20416;-68
2021/04/01 05:09:23;;;;;;;16.77;7.67;;;10.50;99.90;;;;;;5113155;28;20798;-68
2021/04/01 05:11:58;;;;;;;12.80;6.40;;;10.50;99.90;;;;;;5113158;28;20473;-68
2021/04/01 05:14:26;;;;;;;19.80;8.80;;;10.50;99.90;;;;;;5113137;27;20424;-68
2021/04/01 05:16:57;;;;;;;18.00;8.07;;;10.40;99.90;;;;;;5113012;28;20998;-68
2021/04/01 05:19:37;;;;;;;;;;;;;;;;;;;;;
2021/04/01 05:22:11;;;;;;;17.00;7.43;;;10.40;99.90;;;;;;5112191;28;20474;-68
2021/04/01 05:24:42;;;;;;;12.67;6.27;;;10.40;99.90;;;;;;5112932;28;20931;-68
2021/04/01 05:27:25;;;;;;;21.90;7.77;;;10.40;99.90;;;;;;5112563;27;20428;-68
2021/04/01 05:30:00;;;;;;;17.23;7.23;;;10.40;99.90;;;;;;5112567;28;20444;-68
2021/04/01 05:32:34;;;;;;;17.13;7.07;;;10.40;99.90;;;;;;5112891;28;20824;-68
2021/04/01 05:35:13;;;;;;;15.57;7.80;;;10.30;99.90;;;;;;5112479;28;20439;-68
2021/04/01 05:37:46;;;;;;;13.70;6.90;;;10.20;99.90;;;;;;5112511;28;20430;-68
2021/04/01 05:40:15;;;;;;;13.83;6.87;;;10.30;99.90;;;;;;5112385;28;20440;-68
2021/04/01 05:42:45;;;;;;;13.00;5.63;;;10.30;99.90;;;;;;5112429;28;20921;-68
2021/04/01 05:45:17;;;;;;;19.07;6.50;;;10.40;99.90;;;;;;5112263;28;20433;-68
2021/04/01 05:47:51;;;;;;;13.47;5.70;;;10.40;99.90;;;;;;5112698;28;20489;-68
2021/04/01 05:50:33;;;;;;;8.67;5.17;;;10.50;99.90;;;;;;5111868;28;20427;-68
2021/04/01 05:59:21;;;;;;;11.63;5.60;;;10.70;99.90;;;;;;5112320;28;20859;-68
2021/04/01 06:02:20;;;;;;;8.67;5.10;;;10.80;99.90;;;;;;5111965;28;20456;-68
2021/04/01 06:05:08;;;;;;;11.10;4.90;;;11.00;99.90;;;;;;5111830;27;20453;-68
2021/04/01 06:07:49;;;;;;;8.00;4.83;;;11.10;99.90;;;;;;5112104;28;20979;-68
2021/04/01 06:10:20;;;;;;;7.80;3.80;;;11.20;99.90;;;;;;5103718;28;20439;-69
2021/04/01 06:12:48;;;;;;;8.60;5.07;;;11.40;99.90;;;;;;5111966;28;20445;-68
2021/04/01 06:15:24;;;;;;;8.60;4.47;;;11.50;99.90;;;;;;5111994;28;20480;-68
2021/04/01 06:18:02;;;;;;;14.93;4.87;;;11.60;99.90;;;;;;5111705;28;20443;-68
2021/04/01 06:20:34;;;;;;;12.80;4.53;;;11.70;99.80;;;;;;5099076;28;20930;-68
2021/04/01 06:23:03;;;;;;;13.13;4.93;;;11.80;99.70;;;;;;5110646;28;20442;-68
2021/04/01 06:25:38;;;;;;;6.00;3.53;;;11.80;99.40;;;;;;5111032;28;20573;-69
2021/04/01 06:28:12;;;;;;;8.57;4.00;;;11.90;99.50;;;;;;5091255;28;20428;-68
2021/04/01 06:30:49;;;;;;;9.80;5.00;;;12.00;98.70;;;;;;5091397;28;20932;-68
2021/04/01 06:33:25;;;;;;;8.33;3.90;;;12.10;98.20;;;;;;5091573;28;20437;-68
2021/04/01 06:36:04;;;;;;;9.23;4.60;;;12.20;98.00;;;;;;5091327;28;20509;-68
2021/04/01 06:38:40;;;;;;;6.60;3.90;;;12.30;97.90;;;;;;5090910;28;20474;-67
2021/04/01 06:41:36;;;;;;;12.50;3.90;;;12.30;97.70;;;;;;5091247;28;20499;-67
2021/04/01 06:44:29;;;;;;;9.93;3.83;;;12.40;97.40;;;;;;5090976;28;20430;-67
2021/04/01 06:47:11;;;;;;;8.33;3.60;;;12.50;97.30;;;;;;5090896;28;20434;-68
2021/04/01 06:49:57;;;;;;;11.17;3.80;;;12.60;97.20;;;;;;5092249;28;20434;-67
2021/04/01 06:52:36;;;;;;;7.50;3.70;;;12.70;97.10;;;;;;5106033;28;20884;-68
2021/04/01 06:55:31;;;;;;;8.60;4.40;;;12.80;97.00;;;;;;5104899;28;20516;-67
2021/04/01 06:58:11;;;;;;;10.30;4.70;;;12.90;96.80;;;;;;5104446;28;20515;-68
2021/04/01 07:00:50;;;;;;;9.60;4.00;;;13.00;96.30;;;;;;5098766;28;20528;-68
2021/04/01 07:03:36;;;;;;;8.50;4.10;;;13.10;96.80;;;;;;5101009;28;21117;-67
2021/04/01 07:06:12;;;;;;;7.87;3.67;;;13.20;96.60;;;;;;5090886;28;20463;-68
2021/04/01 07:08:52;;;;;;;6.47;3.47;;;13.20;96.80;;;;;;5095466;28;20442;-67
2021/04/01 07:11:40;;;;;;;4.50;3.20;;;13.40;96.80;;;;;;5090931;28;20962;-68
2021/04/01 07:14:18;;;;;;;7.60;3.63;;;13.40;96.40;;;;;;5094896;28;20428;-69
2021/04/01 07:16:49;;;;;;;7.67;3.73;;;13.40;95.80;;;;;;5094990;28;20484;-68
2021/04/01 07:19:30;;;;;;;8.47;4.00;;;13.50;95.80;;;;;;5095119;28;20553;-68
2021/04/01 07:45:05;;;;;;;11.30;5.27;;;14.00;94.60;;;;;;5094718;28;20427;-69
2021/04/01 07:47:38;;;;;;;14.00;5.20;;;14.00;94.60;;;;;;5094624;28;20789;-69
2021/04/01 07:50:15;;;;;;;10.30;4.33;;;14.10;94.80;;;;;;5099779;28;20432;-68
2021/04/01 07:52:45;;;;;;;11.90;3.90;;;14.20;94.80;;;;;;5114162;28;20435;-68
2021/04/01 07:55:21;;;;;;;7.40;3.70;;;14.20;94.50;;;;;;5114248;28;20493;-70
2021/04/01 07:58:21;;;;;;;8.07;3.57;;;14.40;94.00;;;;;;5114241;28;20444;-70
2021/04/01 08:00:53;;;;;;;11.20;4.03;;;14.40;93.30;;;;;;5105470;28;20456;-68
2021/04/01 08:06:26;;;;;;;5.17;3.70;;;14.50;92.90;;;;;;5100960;28;20505;-69
2021/04/01 08:09:15;;;;;;;7.77;3.77;;;14.60;92.80;;;;;;5103295;28;20526;-69
2021/04/01 08:11:53;;;;;;;6.87;3.10;;;14.70;92.20;;;;;;5093753;28;20513;-68
2021/04/01 08:14:31;;;;;;;7.10;3.20;;;14.70;91.80;;;;;;5108435;28;20529;-70
2021/04/01 08:17:03;;;;;;;6.20;2.90;;;14.80;92.00;;;;;;5114005;28;20438;-70
2021/04/01 08:19:36;;;;;;;9.60;3.50;;;14.90;91.80;;;;;;5114043;28;20478;-68
2021/04/01 08:22:04;;;;;;;8.50;3.03;;;14.90;91.60;;;;;;5113928;28;20542;-70
2021/04/01 08:24:35;;;;;;;7.73;3.50;;;15.00;91.90;;;;;;5112172;28;20430;-68
2021/04/01 08:27:20;;;;;;;20.50;3.33;;;15.10;91.40;;;;;;5113773;28;20470;-67
2021/04/01 08:35:27;;;;;;;6.90;2.90;;;15.50;93.10;;;;;;5113543;28;20517;-68
2021/04/01 08:38:11;;;;;;;7.80;3.60;;;15.60;90.80;;;;;;5113654;28;20435;-69
2021/04/01 08:40:41;;;;;;;11.40;3.73;;;15.40;90.20;;;;;;5113317;28;20550;-69
2021/04/01 08:43:45;;;;;;;5.27;3.30;;;15.60;90.50;;;;;;5113760;28;20514;-68
2021/04/01 08:46:39;;;;;;;3.53;3.10;;;15.60;90.80;;;;;;5113346;28;20443;-68
2021/04/01 08:49:22;;;;;;;12.30;2.97;;;15.60;90.30;;;;;;5112808;28;20541;-69
2021/04/01 08:52:26;;;;;;;5.93;3.80;;;15.60;90.80;;;;;;5113495;28;20459;-70
2021/04/01 08:55:05;;;;;;;9.13;3.10;;;15.70;91.50;;;;;;5113155;28;20444;-69
2021/04/01 08:57:46;;;;;;;4.50;4.03;;;15.80;91.40;;;;;;5108029;28;20489;-69
2021/04/01 09:00:14;;;;;;;7.90;4.30;;;15.90;90.90;;;;;;5109244;28;20484;-70
2021/04/01 09:02:49;;;;;;;11.27;4.90;;;16.00;90.90;;;;;;5113260;28;20482;-68
2021/04/01 09:05:16;;;;;;;11.10;4.30;;;16.00;90.50;;;;;;5113182;28;20438;-69
2021/04/01 09:07:47;;;;;;;8.47;4.27;;;16.10;90.60;;;;;;5113052;28;20953;-69
2021/04/01 09:10:16;;;;;;;5.67;3.80;;;16.10;90.20;;;;;;5112866;28;20440;-70
2021/04/01 09:12:48;;;;;;;7.97;3.83;;;16.00;90.90;;;;;;5112997;28;20586;-69
2021/04/01 09:15:25;;;;;;;8.60;3.77;;;16.10;90.90;;;;;;5112838;28;20528;-69
2021/04/01 09:17:53;;;;;;;7.77;4.73;;;16.00;90.00;;;;;;5109920;28;20432;-71
2021/04/01 09:20:23;;;;;;;8.33;3.80;;;16.20;90.50;;;;;;5110769;28;20440;-69
2021/04/01 09:22:51;;;;;;;9.57;2.93;;;16.30;90.30;;;;;;5111152;28;20436;-69
2021/04/01 09:25:20;;;;;;;10.93;4.33;;;16.40;89.30;;;;;;5110802;28;20475;-71
2021/04/01 09:27:49;;;;;;;5.77;2.97;;;16.50;90.10;;;;;;5111009;28;20435;-69
2021/04/01 09:30:18;;;;;;;15.93;5.47;;;16.60;91.60;;;;;;5111409;28;20428;-69
2021/04/01 09:32:47;;;;;;;7.90;4.20;;;16.50;87.90;;;;;;5111854;28;20531;-71
2021/04/01 09:35:16;;;;;;;8.83;3.87;;;16.50;88.70;;;;;;5112296;28;20432;-70
2021/04/01 09:37:51;;;;;;;7.87;3.60;;;16.60;90.10;;;;;;5112378;28;20420;-69
2021/04/01 09:40:19;;;;;;;12.30;4.30;;;16.70;89.30;;;;;;5111847;28;20476;-68
2021/04/01 09:42:46;;;;;;;8.33;4.57;;;16.70;87.80;;;;;;5092461;27;20425;-68
2021/04/01 09:45:15;;;;;;;11.00;5.00;;;16.60;89.90;;;;;;5092444;28;20437;-68
2021/04/01 09:47:47;;;;;;;6.63;4.87;;;16.60;90.50;;;;;;5092247;28;20441;-68
2021/04/01 09:50:16;;;;;;;12.37;3.63;;;16.70;90.10;;;;;;5097858;28;20816;-69
2021/04/01 09:52:55;;;;;;;16.77;4.30;;;16.60;90.50;;;;;;5112049;28;20428;-69
2021/04/01 09:55:23;;;;;;;8.97;4.47;;;16.80;91.00;;;;;;5112609;28;20422;-68
2021/04/01 09:57:52;;;;;;;7.37;4.23;;;16.80;88.80;;;;;;5112174;28;20432;-68
2021/04/01 10:00:30;;;;;;;8.23;4.43;;;16.80;88.40;;;;;;5111789;28;20482;-70
2021/04/01 10:03:05;;;;;;;8.73;4.73;;;16.80;90.70;;;;;;5112073;28;20467;-68
2021/04/01 10:05:41;;;;;;;10.33;4.87;;;17.10;89.20;;;;;;5112191;28;20583;-70
2021/04/01 10:08:09;;;;;;;7.80;4.70;;;17.10;87.40;;;;;;5111841;28;20462;-68
2021/04/01 10:10:42;;;;;;;9.40;4.60;;;17.10;87.50;;;;;;5111802;28;20851;-68
2021/04/01 10:13:21;;;;;;;10.93;6.53;;;17.10;89.60;;;;;;5111766;28;20790;-69
2021/04/01 10:15:49;;;;;;;9.50;5.10;;;17.20;88.10;;;;;;5112241;28;20809;-69
2021/04/01 10:18:20;;;;;;;9.03;4.17;;;17.30;87.80;;;;;;5111747;28;20970;-68
2021/04/01 10:20:56;;;;;;;10.27;5.57;;;17.60;90.10;;;;;;5111664;28;20959;-69
2021/04/01 10:23:23;;;;;;;11.87;5.90;;;17.80;89.20;;;;;;5111657;28;20500;-70
2021/04/01 10:25:55;;;;;;;10.47;5.03;;;17.90;84.90;;;;;;5111678;28;20463;-69
2021/04/01 10:28:37;;;;;;;13.83;5.70;;;18.10;88.50;;;;;;5111867;28;20907;-68
2021/04/01 10:31:13;;;;;;;10.87;5.00;;;18.30;88.40;;;;;;5111365;28;20471;-68
2021/04/01 10:33:54;;;;;;;11.50;4.93;;;18.30;84.50;;;;;;5110802;28;20447;-68
2021/04/01 10:36:27;;;;;;;12.17;4.60;;;18.20;88.60;;;;;;5111271;28;20416;-68
2021/04/01 10:39:01;;;;;;;9.30;5.50;;;18.30;88.30;;;;;;5111448;28;20468;-68
2021/04/01 10:41:29;;;;;;;11.53;5.50;;;18.50;84.90;;;;;;5111412;28;20448;-68
2021/04/01 10:44:00;;;;;;;12.43;5.00;;;18.60;85.40;;;;;;5111419;28;20428;-68
2021/04/01 10:46:29;;;;;;;9.43;5.10;;;18.60;86.50;;;;;;5111125;28;20449;-69
2021/04/01 10:49:01;;;;;;;16.53;6.07;;;18.50;84.20;;;;;;5111456;28;20801;-69
2021/04/01 10:51:28;;;;;;;9.30;4.90;;;18.40;81.80;;;;;;5111115;28;20958;-68
2021/04/01 10:53:56;;;;;;;9.80;4.93;;;18.50;83.40;;;;;;5111802;28;20440;-69
2021/04/01 10:56:24;;;;;;;11.43;5.93;;;18.60;82.50;;;;;;5111422;28;20815;-69
2021/04/01 10:58:52;;;;;;;18.37;4.60;;;18.60;81.60;;;;;;5111140;28;20463;-68
2021/04/01 11:01:21;;;;;;;9.47;4.53;;;18.90;82.80;;;;;;5111166;28;20504;-69
2021/04/01 11:03:53;;;;;;;10.03;4.57;;;19.20;80.70;;;;;;5111156;28;20515;-70
2021/04/01 11:06:20;;;;;;;9.93;4.30;;;19.40;80.90;;;;;;5111133;28;20423;-69
2021/04/01 11:08:50;;;;;;;10.50;5.33;;;19.60;79.90;;;;;;5111019;28;20508;-69
2021/04/01 11:11:22;;;;;;;14.67;5.03;;;19.80;81.30;;;;;;5111125;28;20439;-69
2021/04/01 11:13:50;;;;;;;8.70;4.43;;;19.90;78.70;;;;;;5111460;28;20459;-68
2021/04/01 11:16:21;;;;;;;11.77;4.80;;;19.70;77.90;;;;;;5111242;28;20773;-70
2021/04/01 11:18:50;;;;;;;6.90;4.17;;;19.80;77.90;;;;;;5110912;28;20540;-69
2021/04/01 11:21:20;;;;;;;9.73;3.90;;;20.00;77.10;;;;;;5110927;28;21009;-72
2021/04/01 11:23:48;;;;;;;13.50;4.13;;;19.80;76.30;;;;;;5111201;28;20492;-69
2021/04/01 11:26:14;;;;;;;5.67;4.20;;;19.90;78.60;;;;;;5111075;28;20427;-69
2021/04/01 11:28:43;;;;;;;7.03;4.57;;;20.30;78.10;;;;;;5111297;28;20434;-69
2021/04/01 11:31:11;;;;;;;10.30;4.83;;;20.30;77.80;;;;;;5111169;28;21005;-68
2021/04/01 11:33:38;;;;;;;12.70;3.97;;;20.30;76.80;;;;;;5109594;28;20440;-69
2021/04/01 11:36:09;;;;;;;6.80;4.03;;;20.40;77.60;;;;;;5110552;28;20837;-68
2021/04/01 11:38:43;;;;;;;8.63;4.97;;;20.40;75.50;;;;;;5109438;28;20610;-69
2021/04/01 11:41:13;;;;;;;9.20;4.90;;;20.00;75.50;;;;;;5110632;28;20480;-69
2021/04/01 11:43:41;;;;;;;5.80;3.53;;;20.00;76.30;;;;;;5110659;28;20427;-71
2021/04/01 11:46:19;;;;;;;6.97;4.90;;;19.90;76.40;;;;;;5111107;28;20444;-68
2021/04/01 11:48:47;;;;;;;7.37;3.97;;;20.20;77.40;;;;;;5110552;28;20958;-68
2021/04/01 11:51:19;;;;;;;7.77;4.13;;;20.30;78.60;;;;;;5110571;28;20523;-69
2021/04/01 11:53:46;;;;;;;10.00;4.00;;;20.30;74.70;;;;;;5110511;28;20424;-70
2021/04/01 11:56:14;;;;;;;12.93;4.03;;;20.30;75.50;;;;;;5110792;28;20439;-68
2021/04/01 11:58:41;;;;;;;7.73;4.13;;;20.20;75.60;;;;;;5112506;28;20464;-70
2021/04/01 12:01:12;;;;;;;10.40;4.20;;;20.20;75.60;;;;;;5114456;28;20819;-69
2021/04/01 12:03:55;;;;;;;6.60;3.87;;;20.40;76.30;;;;;;5114141;28;20463;-69
2021/04/01 12:06:25;;;;;;;11.20;4.80;;;20.60;80.60;;;;;;5114682;28;20432;-68
2021/04/01 12:08:53;;;;;;;8.30;4.80;;;20.70;77.30;;;;;;5114626;28;20421;-69
2021/04/01 12:11:20;;;;;;;10.10;4.23;;;20.80;73.60;;;;;;5114281;28;20448;-69
2021/04/01 12:13:47;;;;;;;20.97;4.93;;;20.90;75.40;;;;;;5114118;28;20439;-68
2021/04/01 12:16:18;;;;;;;6.70;4.40;;;21.20;76.50;;;;;;5114252;28;20424;-68
2021/04/01 12:18:46;;;;;;;12.20;4.83;;;21.50;76.00;;;;;;5113899;28;21002;-69
2021/04/01 12:21:14;;;;;;;8.60;5.53;;;21.60;72.40;;;;;;5113974;28;20486;-69
2021/04/01 12:23:42;;;;;;;12.77;5.80;;;21.70;70.70;;;;;;5113633;28;20917;-69
2021/04/01 12:26:10;;;;;;;16.40;6.13;;;21.50;70.60;;;;;;5113993;28;20440;-68
2021/04/01 12:28:37;;;;;;;15.00;5.37;;;21.50;71.80;;;;;;5113546;28;20432;-70
2021/04/01 12:31:10;;;;;;;10.17;5.47;;;21.30;72.10;;;;;;5113567;28;20509;-70
2021/04/01 12:33:48;;;;;;;9.23;5.33;;;21.20;73.50;;;;;;5113667;28;20509;-69
2021/04/01 12:36:16;;;;;;;13.30;5.00;;;21.40;74.60;;;;;;5112436;28;20456;-67
2021/04/01 12:38:46;;;;;;;8.80;5.23;;;21.70;74.40;;;;;;5113693;28;20494;-69
2021/04/01 12:41:25;;;;;;;10.03;4.73;;;22.10;70.50;;;;;;5112554;28;20463;-70
2021/04/01 12:43:53;;;;;;;12.57;5.30;;;22.10;68.70;;;;;;5114029;28;20880;-68
2021/04/01 12:46:20;;;;;;;11.40;4.47;;;22.00;69.60;;;;;;5113437;28;20440;-68
2021/04/01 12:48:51;;;;;;;9.00;4.20;;;22.10;70.60;;;;;;5113825;28;20460;-69
2021/04/01 12:51:20;;;;;;;9.73;4.10;;;22.20;65.20;;;;;;5113754;28;20844;-70
2021/04/01 12:54:03;;;;;;;7.77;4.27;;;22.10;66.50;;;;;;5113026;28;20485;-69
2021/04/01 12:56:33;;;;;;;10.73;4.90;;;22.10;66.00;;;;;;5114298;28;20455;-69
2021/04/01 12:59:04;;;;;;;10.53;4.63;;;22.30;70.50;;;;;;5113455;28;20836;-68
2021/04/01 13:01:33;;;;;;;10.10;4.60;;;22.80;67.60;;;;;;5113296;28;20547;-70
2021/04/01 13:04:02;;;;;;;6.63;3.83;;;23.00;68.00;;;;;;5109833;28;20523;-69
2021/04/01 13:06:38;;;;;;;13.30;4.57;;;23.10;64.40;;;;;;5103521;28;20424;-68
2021/04/01 13:09:24;;;;;;;10.30;3.90;;;23.00;64.50;;;;;;5101612;28;20427;-69
2021/04/01 13:11:52;;;;;;;9.43;4.30;;;22.90;65.40;;;;;;5111282;28;20884;-68
2021/04/01 13:14:20;;;;;;;9.43;3.83;;;23.60;64.80;;;;;;5113030;28;20935;-68
2021/04/01 13:16:47;;;;;;;9.67;4.30;;;23.60;65.10;;;;;;5113239;28;20420;-69
2021/04/01 13:19:14;;;;;;;11.53;4.90;;;23.40;64.80;;;;;;5112959;28;20468;-69
2021/04/01 13:21:53;;;;;;;10.40;3.80;;;23.30;62.50;;;;;;5112720;28;20491;-68
2021/04/01 13:24:27;;;;;;;6.70;3.10;;;23.00;62.00;;;;;;5113125;28;20432;-68
2021/04/01 13:26:55;;;;;;;6.30;4.03;;;23.10;62.80;;;;;;5112592;28;20519;-71
2021/04/01 13:29:25;;;;;;;15.00;3.40;;;23.30;62.10;;;;;;5105740;28;20473;-70
2021/04/01 13:31:56;;;;;;;8.43;3.37;;;23.30;59.10;;;;;;5110263;28;20479;-69
2021/04/01 13:34:27;;;;;;;8.77;3.30;;;23.40;58.60;;;;;;5105541;28;20444;-68
2021/04/01 13:36:59;;;;;;;12.80;3.90;;;23.60;57.10;;;;;;5102484;28;20932;-68
2021/04/01 13:39:30;;;;;;;4.73;2.70;;;23.30;55.70;;;;;;5104680;28;20550;-70
2021/04/01 13:42:08;;;;;;;5.37;3.60;;;23.10;55.10;;;;;;5102762;28;20456;-68
2021/04/01 13:44:41;;;;;;;6.47;3.10;;;23.30;55.60;;;;;;5110151;28;20428;-68
2021/04/01 13:47:12;;;;;;;5.53;3.40;;;23.60;57.30;;;;;;5103217;28;20828;-68
2021/04/01 13:49:40;;;;;;;7.10;3.23;;;23.70;56.70;;;;;;5103732;28;20420;-69
2021/04/01 13:52:12;;;;;;;9.43;3.80;;;24.10;58.30;;;;;;5100851;28;20444;-67